Time;durP1;ratioP1;P1;durP2;ratioP2;P2;SDS_P1;SDS_P2;PMS_P1;PMS_P2;Temp;Humidity;BMP_temperature;BMP_pressure;BME280_temperature;BME280_humidity;BME280_pressure;Samples;Min_cycle;Max_cycle;Signal;HPM_P1;HPM_P2
2023/08/24 00:00:41;;;;;;;;;;;22.50;99.90;;;;;;4158021;28;20069;-77
2023/08/24 00:02:42;;;;;;;2.70;2.30;;;22.50;99.90;;;;;;4157798;28;19920;-77
2023/08/24 00:04:42;;;;;;;2.83;2.17;;;22.50;99.90;;;;;;4159907;28;20363;-77
2023/08/24 00:06:43;;;;;;;3.25;2.50;;;22.50;99.90;;;;;;4159314;28;20021;-77
2023/08/24 00:08:44;;;;;;;4.45;2.50;;;22.50;99.90;;;;;;4154103;28;20053;-77
2023/08/24 00:10:48;;;;;;;3.65;2.50;;;22.50;99.90;;;;;;4157229;28;20425;-78
2023/08/24 00:12:49;;;;;;;4.43;2.80;;;22.50;99.90;;;;;;4154391;28;20037;-78
2023/08/24 00:14:49;;;;;;;3.58;2.33;;;22.50;99.90;;;;;;4159004;28;20382;-77
2023/08/24 00:16:50;;;;;;;3.65;2.97;;;22.50;99.90;;;;;;4158326;28;20030;-77
2023/08/24 00:18:51;;;;;;;4.20;2.92;;;22.50;99.90;;;;;;4159960;28;20110;-77
2023/08/24 00:20:51;;;;;;;3.78;3.17;;;22.50;99.90;;;;;;4159772;28;20541;-68
2023/08/24 00:22:52;;;;;;;4.53;3.30;;;22.40;99.90;;;;;;4160060;28;20175;-69
2023/08/24 00:24:53;;;;;;;6.70;3.42;;;22.40;99.90;;;;;;4158063;28;20471;-69
2023/08/24 00:26:54;;;;;;;4.53;3.30;;;22.40;99.90;;;;;;4156818;28;20032;-70
2023/08/24 00:28:55;;;;;;;4.07;3.25;;;22.40;99.90;;;;;;4159465;28;20040;-69
2023/08/24 00:30:55;;;;;;;6.10;3.85;;;22.40;99.90;;;;;;4157319;28;20402;-69
2023/08/24 00:32:56;;;;;;;5.10;3.58;;;22.40;99.90;;;;;;4153193;28;20026;-70
2023/08/24 00:34:56;;;;;;;6.07;4.43;;;22.40;99.90;;;;;;4158458;28;20033;-70
2023/08/24 00:36:57;;;;;;;5.13;3.90;;;22.30;99.90;;;;;;4156355;28;20529;-70
2023/08/24 00:38:57;;;;;;;7.47;3.90;;;22.30;99.90;;;;;;4157903;28;20120;-71
2023/08/24 00:40:59;;;;;;;4.95;3.67;;;22.30;99.90;;;;;;4160274;28;20428;-70
2023/08/24 00:42:59;;;;;;;5.93;3.83;;;22.30;99.90;;;;;;4162177;28;20131;-70
2023/08/24 00:45:00;;;;;;;6.15;4.10;;;22.30;99.90;;;;;;4160921;28;20497;-70
2023/08/24 00:47:01;;;;;;;6.43;4.35;;;22.20;99.90;;;;;;4161352;28;20444;-70
2023/08/24 00:49:02;;;;;;;5.63;3.63;;;22.20;99.90;;;;;;4162287;28;20132;-70
2023/08/24 00:51:04;;;;;;;5.40;4.18;;;22.30;99.90;;;;;;4161520;28;20486;-70
2023/08/24 00:53:05;;;;;;;8.43;6.57;;;22.20;99.90;;;;;;4160027;28;20489;-70
2023/08/24 00:55:06;;;;;;;11.18;6.75;;;22.20;99.90;;;;;;4159878;28;20288;-70
2023/08/24 00:57:07;;;;;;;8.07;6.45;;;22.20;99.90;;;;;;4161581;28;20057;-70
2023/08/24 00:59:08;;;;;;;8.32;6.70;;;22.10;99.90;;;;;;4163308;28;20041;-70
2023/08/24 01:01:08;;;;;;;10.73;7.75;;;22.10;99.90;;;;;;4160495;28;20042;-70
2023/08/24 01:03:09;;;;;;;8.75;7.13;;;22.10;99.90;;;;;;4162554;28;20623;-70
2023/08/24 01:05:10;;;;;;;10.55;7.20;;;22.10;99.90;;;;;;4163847;28;20493;-69
2023/08/24 01:07:11;;;;;;;10.48;7.72;;;22.10;99.90;;;;;;4164169;28;20091;-70
2023/08/24 01:09:12;;;;;;;9.60;7.57;;;22.10;99.90;;;;;;4157406;28;20041;-70
2023/08/24 01:11:41;;;;;;;7.38;6.05;;;22.10;99.90;;;;;;4161487;28;20045;-70
2023/08/24 01:13:59;;;;;;;6.97;5.47;;;22.10;99.90;;;;;;4157090;28;20811;-71
2023/08/24 01:16:12;;;;;;;9.77;6.78;;;22.10;99.90;;;;;;4152356;28;20076;-70
2023/08/24 01:18:16;;;;;;;8.43;6.28;;;22.10;99.90;;;;;;4161906;28;20474;-70
2023/08/24 01:20:18;;;;;;;8.57;5.90;;;22.10;99.90;;;;;;4163534;28;20030;-70
2023/08/24 01:22:27;;;;;;;5.60;4.50;;;22.10;99.90;;;;;;4161089;28;20095;-71
2023/08/24 01:24:39;;;;;;;6.75;4.72;;;22.10;99.90;;;;;;4158428;28;20033;-70
2023/08/24 01:26:41;;;;;;;8.25;4.30;;;22.10;99.90;;;;;;4162346;28;20099;-70
2023/08/24 01:28:44;;;;;;;5.20;3.57;;;22.10;99.90;;;;;;4164258;28;20044;-71
2023/08/24 01:30:45;;;;;;;3.97;3.28;;;22.10;99.90;;;;;;4162061;28;20075;-70
2023/08/24 01:32:45;;;;;;;5.05;3.65;;;22.20;99.90;;;;;;4179210;28;20032;-70
2023/08/24 01:34:46;;;;;;;6.15;3.65;;;22.20;99.90;;;;;;4160084;28;20541;-70
2023/08/24 01:36:46;;;;;;;4.70;3.42;;;22.10;99.90;;;;;;4156486;28;20109;-70
2023/08/24 01:38:58;;;;;;;3.83;2.75;;;22.10;99.90;;;;;;4167232;28;20034;-71
2023/08/24 01:41:09;;;;;;;3.13;2.45;;;22.00;99.90;;;;;;4161292;28;20060;-70
2023/08/24 01:43:11;;;;;;;5.43;3.13;;;22.00;99.90;;;;;;4158475;28;20124;-70
2023/08/24 01:45:13;;;;;;;;;;;22.00;99.90;;;;;;4160660;28;20033;-72
2023/08/24 01:47:15;;;;;;;5.70;3.17;;;22.00;99.90;;;;;;4163035;28;20285;-71
2023/08/24 01:49:18;;;;;;;4.30;2.70;;;22.00;99.90;;;;;;4159589;28;20500;-69
2023/08/24 01:51:19;;;;;;;4.30;2.85;;;22.00;99.90;;;;;;4161536;28;20037;-69
2023/08/24 01:53:20;;;;;;;5.43;3.25;;;22.00;99.90;;;;;;4178690;28;20520;-70
2023/08/24 01:55:21;;;;;;;4.03;3.05;;;22.00;99.90;;;;;;4191388;28;20028;-70
2023/08/24 01:57:21;;;;;;;5.40;3.30;;;22.00;99.90;;;;;;4162956;28;20060;-69
2023/08/24 01:59:22;;;;;;;4.97;3.45;;;22.00;99.90;;;;;;4158256;28;20041;-70
2023/08/24 02:01:23;;;;;;;4.45;3.00;;;22.00;99.90;;;;;;4160227;28;20099;-67
2023/08/24 02:03:23;;;;;;;3.97;2.97;;;21.90;99.90;;;;;;4162754;28;20045;-70
2023/08/24 02:05:27;;;;;;;6.20;3.25;;;21.90;99.90;;;;;;4161364;28;20132;-70
2023/08/24 02:07:27;;;;;;;4.85;3.08;;;21.90;99.90;;;;;;4161569;28;20135;-69
2023/08/24 02:09:28;;;;;;;5.22;3.55;;;21.90;99.90;;;;;;4162605;28;20044;-62
2023/08/24 02:11:29;;;;;;;3.85;2.97;;;21.90;99.90;;;;;;4160383;28;20044;-72
2023/08/24 02:13:29;;;;;;;3.65;3.10;;;21.80;99.90;;;;;;4161802;28;20038;-71
2023/08/24 02:15:30;;;;;;;4.38;3.20;;;21.80;99.90;;;;;;4162028;28;20046;-70
2023/08/24 02:17:31;;;;;;;5.57;3.55;;;21.60;99.90;;;;;;4162592;28;20065;-72
2023/08/24 02:19:31;;;;;;;3.45;2.60;;;21.60;99.90;;;;;;4161254;28;20133;-72
2023/08/24 02:21:34;;;;;;;5.03;3.10;;;21.60;99.90;;;;;;4161594;28;20037;-72
2023/08/24 02:23:35;;;;;;;7.82;2.75;;;21.60;99.90;;;;;;4161417;28;20037;-72
2023/08/24 02:25:42;;;;;;;3.97;2.95;;;21.60;99.90;;;;;;4159214;28;20072;-72
2023/08/24 02:27:43;;;;;;;3.28;2.95;;;21.60;99.90;;;;;;4158559;28;25461;-72
2023/08/24 02:29:43;;;;;;;5.72;3.53;;;21.60;99.90;;;;;;4157802;28;20116;-72
2023/08/24 02:31:44;;;;;;;5.53;3.10;;;21.50;99.90;;;;;;4160213;28;20064;-72
2023/08/24 02:33:45;;;;;;;5.00;3.13;;;21.50;99.90;;;;;;4161094;28;20113;-73
2023/08/24 02:35:48;;;;;;;4.18;3.15;;;21.50;99.90;;;;;;4159194;28;20083;-72
2023/08/24 02:37:49;;;;;;;5.07;3.35;;;21.50;99.90;;;;;;4161925;28;20046;-72
2023/08/24 02:39:50;;;;;;;4.65;3.10;;;21.60;99.90;;;;;;4162419;28;20048;-73
2023/08/24 02:41:50;;;;;;;4.18;3.40;;;21.60;99.90;;;;;;4160476;28;20041;-72
2023/08/24 02:43:51;;;;;;;4.15;3.25;;;21.60;99.90;;;;;;4157678;28;20030;-72
2023/08/24 02:45:53;;;;;;;5.38;3.15;;;21.50;99.90;;;;;;4156637;28;20474;-72
2023/08/24 02:47:54;;;;;;;6.28;3.35;;;21.60;99.90;;;;;;4161342;28;20096;-72
2023/08/24 02:49:54;;;;;;;5.90;3.70;;;21.50;99.90;;;;;;4159959;28;20025;-72
2023/08/24 02:51:55;;;;;;;4.30;3.17;;;21.60;99.90;;;;;;4162122;28;20354;-72
2023/08/24 02:53:56;;;;;;;6.03;3.40;;;21.60;99.90;;;;;;4156217;28;20557;-73
2023/08/24 02:55:56;;;;;;;4.78;3.80;;;21.50;99.90;;;;;;4162008;28;20037;-72
2023/08/24 02:57:57;;;;;;;4.45;3.40;;;21.50;99.90;;;;;;4161716;28;20022;-72
2023/08/24 02:59:57;;;;;;;5.68;3.47;;;21.50;99.90;;;;;;4160332;28;20107;-72
2023/08/24 03:01:58;;;;;;;4.93;3.50;;;21.50;99.90;;;;;;4161411;28;20030;-72
2023/08/24 03:03:59;;;;;;;5.93;3.70;;;21.50;99.90;;;;;;4191923;28;20098;-72
2023/08/24 03:06:02;;;;;;;4.95;3.22;;;21.40;99.90;;;;;;4159065;28;20029;-72
2023/08/24 03:08:04;;;;;;;4.70;2.92;;;21.40;99.90;;;;;;4162791;28;20025;-72
2023/08/24 03:10:05;;;;;;;8.50;4.00;;;21.40;99.90;;;;;;4156813;28;20033;-72
2023/08/24 03:12:06;;;;;;;3.72;3.08;;;21.40;99.90;;;;;;4159193;28;20029;-73
2023/08/24 03:14:06;;;;;;;4.97;3.40;;;21.40;99.90;;;;;;4160693;28;20041;-72
2023/08/24 03:16:08;;;;;;;5.55;3.50;;;21.40;99.90;;;;;;4154398;28;20386;-72
2023/08/24 03:18:13;;;;;;;6.25;4.15;;;21.40;99.90;;;;;;4161172;28;20385;-72
2023/08/24 03:20:14;;;;;;;4.65;3.40;;;21.40;99.90;;;;;;4160979;28;20090;-64
2023/08/24 03:22:14;;;;;;;4.22;3.17;;;21.40;99.90;;;;;;4158415;28;20492;-62
2023/08/24 03:24:15;;;;;;;4.90;3.63;;;21.40;99.90;;;;;;4159656;28;20351;-63
2023/08/24 03:26:16;;;;;;;5.07;3.10;;;21.40;99.90;;;;;;4157608;28;20083;-63
2023/08/24 03:28:17;;;;;;;5.38;3.40;;;21.40;99.90;;;;;;4156898;28;20041;-63
2023/08/24 03:30:17;;;;;;;5.97;3.42;;;21.40;99.90;;;;;;4155869;28;20104;-63
2023/08/24 03:32:18;;;;;;;5.28;3.53;;;21.40;99.90;;;;;;4160792;28;20144;-63
2023/08/24 03:34:20;;;;;;;7.78;3.75;;;21.40;99.90;;;;;;4161030;28;20021;-63
2023/08/24 03:36:21;;;;;;;5.25;3.95;;;21.40;99.90;;;;;;4155053;28;20091;-63
2023/08/24 03:38:22;;;;;;;8.98;3.80;;;21.40;99.90;;;;;;4159517;28;20041;-63
2023/08/24 03:40:22;;;;;;;5.97;3.63;;;21.50;99.90;;;;;;4159701;28;21122;-63
2023/08/24 03:42:23;;;;;;;5.72;3.90;;;21.50;99.90;;;;;;4157399;28;20033;-63
2023/08/24 03:44:24;;;;;;;4.88;3.67;;;21.50;99.90;;;;;;4159018;28;20030;-63
2023/08/24 03:46:25;;;;;;;4.97;4.00;;;21.50;99.90;;;;;;4156019;28;20036;-64
2023/08/24 03:48:26;;;;;;;5.18;4.07;;;21.50;99.90;;;;;;4156576;28;20061;-64
2023/08/24 03:50:26;;;;;;;6.55;3.95;;;21.50;99.90;;;;;;4155238;28;20129;-62
2023/08/24 03:52:27;;;;;;;5.10;3.88;;;21.50;99.90;;;;;;4157435;28;20040;-63
2023/08/24 03:54:28;;;;;;;7.63;4.28;;;21.50;99.90;;;;;;4160186;28;20115;-63
2023/08/24 03:56:29;;;;;;;4.43;3.65;;;21.50;99.90;;;;;;4158280;28;20049;-63
2023/08/24 03:58:29;;;;;;;5.55;3.75;;;21.50;99.90;;;;;;4159649;28;20096;-64
2023/08/24 04:00:30;;;;;;;7.70;3.95;;;21.50;99.90;;;;;;4158208;28;20034;-64
2023/08/24 04:02:31;;;;;;;6.03;4.25;;;21.60;99.90;;;;;;4157227;28;20033;-64
2023/08/24 04:04:32;;;;;;;5.90;4.65;;;21.60;99.90;;;;;;4157984;28;20048;-64
2023/08/24 04:06:32;;;;;;;7.82;4.90;;;21.50;99.90;;;;;;4157336;28;20116;-64
2023/08/24 04:08:33;;;;;;;6.03;4.70;;;21.50;99.90;;;;;;4160616;28;20378;-64
2023/08/24 04:10:34;;;;;;;6.32;4.38;;;21.50;99.90;;;;;;4159685;28;20034;-64
2023/08/24 04:12:35;;;;;;;6.70;4.25;;;21.40;99.90;;;;;;4159993;28;20437;-64
2023/08/24 04:14:35;;;;;;;7.32;4.28;;;21.40;99.90;;;;;;4158619;28;20040;-64
2023/08/24 04:16:36;;;;;;;8.45;5.28;;;21.40;99.90;;;;;;4157373;28;20493;-64
2023/08/24 04:18:37;;;;;;;8.55;4.43;;;21.40;99.90;;;;;;4163412;28;20034;-63
2023/08/24 04:20:37;;;;;;;7.38;5.28;;;21.40;99.90;;;;;;4162751;28;20432;-64
2023/08/24 04:22:38;;;;;;;7.32;4.82;;;21.40;99.90;;;;;;4160850;28;20042;-64
2023/08/24 04:24:39;;;;;;;8.50;5.00;;;21.40;99.90;;;;;;4158419;28;20038;-64
2023/08/24 04:26:39;;;;;;;9.13;5.55;;;21.30;99.90;;;;;;4161372;28;20520;-64
2023/08/24 04:28:40;;;;;;;12.63;6.18;;;21.20;99.90;;;;;;4163780;28;20132;-63
2023/08/24 04:30:40;;;;;;;10.57;6.10;;;21.10;99.90;;;;;;4161127;28;20118;-72
2023/08/24 04:32:41;;;;;;;8.05;5.18;;;21.00;99.90;;;;;;4163448;28;20034;-72
2023/08/24 04:34:42;;;;;;;10.88;6.80;;;21.00;99.90;;;;;;4164556;28;20444;-72
2023/08/24 04:36:42;;;;;;;9.05;5.25;;;20.80;99.90;;;;;;4179224;28;20060;-72
2023/08/24 04:38:43;;;;;;;11.27;5.68;;;20.80;99.90;;;;;;4160042;28;20460;-72
2023/08/24 04:40:52;;;;;;;7.47;5.10;;;20.80;99.90;;;;;;4160963;28;20065;-72
2023/08/24 04:42:53;;;;;;;9.55;5.03;;;20.80;99.90;;;;;;4164323;28;20120;-72
2023/08/24 04:44:53;;;;;;;8.90;5.78;;;20.80;99.90;;;;;;4163495;28;20033;-72
2023/08/24 04:46:54;;;;;;;8.55;5.13;;;20.80;99.90;;;;;;4160935;28;20033;-72
2023/08/24 04:48:55;;;;;;;9.80;5.55;;;20.80;99.90;;;;;;4161021;28;20031;-74
2023/08/24 04:50:56;;;;;;;6.65;4.50;;;20.70;99.90;;;;;;4162535;28;20033;-71
2023/08/24 04:52:56;;;;;;;11.48;5.43;;;20.70;99.90;;;;;;4160930;28;20053;-72
2023/08/24 04:54:57;;;;;;;9.38;5.80;;;20.70;99.90;;;;;;4160665;28;20030;-72
2023/08/24 04:56:58;;;;;;;15.27;5.53;;;20.60;99.90;;;;;;4191918;28;20029;-72
2023/08/24 04:59:00;;;;;;;5.15;4.00;;;20.70;99.90;;;;;;4160164;28;20108;-71
2023/08/24 05:01:00;;;;;;;9.57;5.03;;;20.70;99.90;;;;;;4160376;28;20101;-68
2023/08/24 05:03:05;;;;;;;8.45;5.43;;;20.70;99.90;;;;;;4155027;28;20037;-68
2023/08/24 05:05:06;;;;;;;8.25;5.35;;;20.70;99.90;;;;;;4159658;28;20067;-69
2023/08/24 05:07:08;;;;;;;8.43;5.13;;;20.70;99.90;;;;;;4155510;28;20076;-68
2023/08/24 05:09:08;;;;;;;8.43;4.85;;;20.60;99.90;;;;;;4155732;28;20045;-69
2023/08/24 05:11:18;;;;;;;6.75;4.93;;;20.60;99.90;;;;;;4156835;28;20033;-69
2023/08/24 05:13:18;;;;;;;7.97;5.22;;;20.60;99.90;;;;;;4156777;28;20389;-69
2023/08/24 05:15:19;;;;;;;11.98;5.75;;;20.60;99.90;;;;;;4159603;28;20037;-69
2023/08/24 05:17:21;;;;;;;9.80;5.70;;;20.60;99.90;;;;;;4160005;28;20441;-69
2023/08/24 05:19:22;;;;;;;8.77;4.63;;;20.50;99.90;;;;;;4160575;28;20493;-69
2023/08/24 05:21:22;;;;;;;7.90;4.18;;;20.50;99.90;;;;;;4157800;28;20105;-69
2023/08/24 05:23:23;;;;;;;7.47;4.05;;;20.50;99.90;;;;;;4158307;28;20401;-69
2023/08/24 05:25:23;;;;;;;10.25;5.05;;;20.60;99.90;;;;;;4153508;28;20037;-69
2023/08/24 05:27:24;;;;;;;8.23;4.50;;;20.60;99.90;;;;;;4151545;28;20191;-70
2023/08/24 05:29:25;;;;;;;6.85;4.15;;;20.60;99.90;;;;;;4154214;28;20040;-70
2023/08/24 05:31:25;;;;;;;10.25;4.40;;;20.60;99.90;;;;;;4160252;28;20033;-69
2023/08/24 05:33:30;;;;;;;6.35;4.18;;;20.60;99.90;;;;;;4156541;28;20053;-67
2023/08/24 05:35:31;;;;;;;9.25;4.88;;;20.60;99.90;;;;;;4156031;28;20084;-69
2023/08/24 05:37:32;;;;;;;8.60;4.72;;;20.70;99.90;;;;;;4162743;28;20428;-69
2023/08/24 05:39:32;;;;;;;8.32;4.50;;;20.70;99.90;;;;;;4161003;28;20049;-63
2023/08/24 05:41:34;;;;;;;8.32;4.50;;;20.70;99.90;;;;;;4158496;28;20036;-66
2023/08/24 05:43:34;;;;;;;6.80;3.85;;;20.80;99.90;;;;;;4160944;28;20037;-63
2023/08/24 05:45:35;;;;;;;6.68;3.95;;;20.80;99.90;;;;;;4160439;28;20065;-63
2023/08/24 05:47:36;;;;;;;6.88;3.95;;;20.80;99.90;;;;;;4159585;28;20037;-63
2023/08/24 05:49:36;;;;;;;6.70;4.35;;;20.90;99.90;;;;;;4159759;28;20072;-63
2023/08/24 05:51:37;;;;;;;10.32;4.00;;;20.90;99.90;;;;;;4157452;28;20075;-63
2023/08/24 05:53:40;;;;;;;7.00;4.20;;;20.90;99.90;;;;;;4159398;28;20033;-63
2023/08/24 05:55:41;;;;;;;7.05;4.18;;;21.00;99.90;;;;;;4157873;28;20120;-62
2023/08/24 05:57:42;;;;;;;6.32;3.53;;;21.00;99.90;;;;;;4155833;28;20410;-62
2023/08/24 05:59:42;;;;;;;7.30;4.13;;;21.10;99.90;;;;;;4158992;28;20069;-63
2023/08/24 06:01:43;;;;;;;5.97;3.70;;;21.10;99.90;;;;;;4152997;28;20049;-63
2023/08/24 06:03:43;;;;;;;5.45;3.60;;;21.20;99.90;;;;;;4156835;28;20045;-63
2023/08/24 06:05:44;;;;;;;5.47;3.78;;;21.20;99.90;;;;;;4157076;28;20052;-62
2023/08/24 06:07:45;;;;;;;6.78;3.92;;;21.30;99.90;;;;;;4154168;28;20448;-63
2023/08/24 06:09:46;;;;;;;7.57;3.80;;;21.30;99.90;;;;;;4155367;28;21237;-63
2023/08/24 06:11:47;;;;;;;5.18;3.55;;;21.40;99.90;;;;;;4156401;28;20082;-63
2023/08/24 06:13:47;;;;;;;6.65;3.95;;;21.50;99.90;;;;;;4155204;28;20033;-63
2023/08/24 06:15:48;;;;;;;4.38;3.42;;;21.50;99.90;;;;;;4155355;28;20382;-63
2023/08/24 06:17:49;;;;;;;7.15;3.72;;;21.50;99.90;;;;;;4156504;28;20490;-63
2023/08/24 06:19:50;;;;;;;7.43;3.83;;;21.50;99.90;;;;;;4160019;28;20041;-63
2023/08/24 06:21:50;;;;;;;7.60;4.53;;;21.60;99.90;;;;;;4159454;28;20034;-63
2023/08/24 06:23:51;;;;;;;5.70;3.83;;;21.60;99.90;;;;;;4160232;28;20088;-63
2023/08/24 06:25:52;;;;;;;6.78;3.88;;;21.60;99.90;;;;;;4160751;28;20036;-63
2023/08/24 06:27:52;;;;;;;6.40;3.90;;;21.60;99.90;;;;;;4161654;28;20040;-63
2023/08/24 06:29:53;;;;;;;7.38;4.40;;;21.60;99.90;;;;;;4189474;28;20025;-63
2023/08/24 06:31:53;;;;;;;7.00;4.75;;;21.60;99.90;;;;;;4159480;28;20389;-63
2023/08/24 06:33:54;;;;;;;6.53;4.63;;;21.60;99.90;;;;;;4161106;28;20056;-62
2023/08/24 06:35:55;;;;;;;14.82;5.40;;;21.50;99.90;;;;;;4161522;28;20033;-63
2023/08/24 06:37:55;;;;;;;6.75;4.22;;;21.40;99.90;;;;;;4158718;28;20111;-63
2023/08/24 06:39:56;;;;;;;7.45;4.20;;;21.50;99.90;;;;;;4162296;28;20410;-63
2023/08/24 06:41:56;;;;;;;6.30;3.88;;;21.60;99.90;;;;;;4159557;28;20042;-63
2023/08/24 06:43:58;;;;;;;7.10;4.65;;;21.70;99.90;;;;;;4160022;28;20074;-63
2023/08/24 06:45:59;;;;;;;6.90;4.10;;;21.80;99.90;;;;;;4160032;28;20025;-63
2023/08/24 06:48:00;;;;;;;8.85;4.72;;;22.00;99.90;;;;;;4159639;28;20547;-63
2023/08/24 06:50:01;;;;;;;7.35;4.38;;;22.20;99.90;;;;;;4162181;28;20502;-70
2023/08/24 06:52:01;;;;;;;5.90;4.20;;;22.50;99.90;;;;;;4161025;28;20029;-64
2023/08/24 06:54:02;;;;;;;8.65;4.35;;;22.80;99.90;;;;;;4160888;28;20481;-62
2023/08/24 06:56:03;;;;;;;7.35;3.90;;;23.10;99.90;;;;;;4160234;28;20029;-64
2023/08/24 06:58:05;;;;;;;9.48;5.28;;;23.40;99.90;;;;;;4172626;28;20420;-64
2023/08/24 07:00:07;;;;;;;8.93;5.28;;;23.70;99.90;;;;;;4159759;28;20116;-73
2023/08/24 07:02:08;;;;;;;8.13;4.40;;;24.00;99.90;;;;;;4160303;28;20039;-69
2023/08/24 07:04:08;;;;;;;7.00;4.13;;;24.30;99.90;;;;;;4159112;28;20045;-71
2023/08/24 07:06:11;;;;;;;6.35;3.65;;;24.70;99.90;;;;;;4161373;28;20037;-70
2023/08/24 07:08:13;;;;;;;5.22;3.70;;;25.00;99.90;;;;;;4160962;28;20103;-71
2023/08/24 07:10:15;;;;;;;6.13;3.47;;;25.40;99.90;;;;;;4159910;28;20029;-71
2023/08/24 07:12:16;;;;;;;7.55;3.95;;;25.80;99.90;;;;;;4161280;28;20133;-71
2023/08/24 07:14:16;;;;;;;8.63;3.97;;;26.20;99.90;;;;;;4164274;28;20950;-70
2023/08/24 07:16:17;;;;;;;6.97;4.00;;;26.60;99.90;;;;;;4161244;28;20049;-71
2023/08/24 07:18:17;;;;;;;4.60;3.25;;;26.80;99.90;;;;;;4160315;28;20544;-71
2023/08/24 07:20:19;;;;;;;6.72;3.47;;;27.00;99.90;;;;;;4161107;28;20052;-71
2023/08/24 07:22:20;;;;;;;7.27;3.97;;;27.20;99.90;;;;;;4158931;28;20436;-72
2023/08/24 07:24:20;;;;;;;7.25;4.07;;;27.30;99.90;;;;;;4161661;28;20252;-71
2023/08/24 07:26:21;;;;;;;7.43;3.88;;;27.20;99.90;;;;;;4161975;28;20029;-71
2023/08/24 07:28:22;;;;;;;4.68;3.08;;;27.10;99.90;;;;;;4163428;28;20114;-70
2023/08/24 07:30:23;;;;;;;4.95;3.20;;;27.40;99.90;;;;;;4163400;28;20441;-71
2023/08/24 07:32:23;;;;;;;7.18;3.10;;;27.40;99.90;;;;;;4162383;28;20033;-71
2023/08/24 07:34:24;;;;;;;7.30;3.60;;;27.60;99.90;;;;;;4161786;28;20029;-71
2023/08/24 07:36:25;;;;;;;7.55;4.05;;;27.60;99.90;;;;;;4164695;28;20036;-71
2023/08/24 07:38:25;;;;;;;7.32;3.55;;;27.60;99.90;;;;;;4162189;28;20091;-71
2023/08/24 07:40:26;;;;;;;7.32;3.35;;;27.60;99.90;;;;;;4161270;28;20037;-71
2023/08/24 07:42:27;;;;;;;7.72;3.42;;;27.70;99.90;;;;;;4161074;28;20041;-70
2023/08/24 07:44:28;;;;;;;5.97;2.63;;;27.70;99.90;;;;;;4165514;28;20060;-67
2023/08/24 07:46:28;;;;;;;3.55;2.92;;;27.70;99.90;;;;;;4156989;28;20397;-71
2023/08/24 07:48:29;;;;;;;4.75;2.83;;;27.70;99.90;;;;;;4161095;28;20055;-71
2023/08/24 07:50:30;;;;;;;4.82;2.80;;;27.70;99.90;;;;;;4161450;28;20452;-70
2023/08/24 07:52:31;;;;;;;4.13;2.45;;;27.70;99.90;;;;;;4161395;28;20084;-71
2023/08/24 07:54:31;;;;;;;5.47;2.80;;;27.70;99.90;;;;;;4162083;28;20030;-70
2023/08/24 07:56:33;;;;;;;7.43;2.80;;;27.80;99.60;;;;;;4159872;28;20029;-70
2023/08/24 07:58:33;;;;;;;4.57;2.70;;;27.80;99.60;;;;;;4162745;28;20504;-71
2023/08/24 08:00:34;;;;;;;3.00;2.00;;;27.80;99.10;;;;;;4162871;28;20033;-70
2023/08/24 08:02:37;;;;;;;4.57;2.53;;;27.80;99.80;;;;;;4160998;28;20107;-70
2023/08/24 08:04:37;;;;;;;;;;;27.80;98.90;;;;;;4156695;28;20050;-69
2023/08/24 08:06:38;;;;;;;4.57;2.30;;;27.90;99.40;;;;;;4160033;28;20434;-69
2023/08/24 08:08:39;;;;;;;5.07;2.47;;;27.90;99.40;;;;;;4161990;28;20029;-69
2023/08/24 08:10:40;;;;;;;4.43;2.67;;;27.80;99.10;;;;;;4159590;28;20034;-70
2023/08/24 08:12:40;;;;;;;4.18;2.58;;;27.90;99.20;;;;;;4175868;28;20037;-70
2023/08/24 08:14:41;;;;;;;3.40;2.10;;;28.00;98.80;;;;;;4156299;28;20045;-70
2023/08/24 08:16:41;;;;;;;4.40;2.55;;;28.00;98.60;;;;;;4158294;28;20127;-70
2023/08/24 08:18:42;;;;;;;3.80;2.42;;;28.10;99.10;;;;;;4162044;28;20069;-70
2023/08/24 08:20:43;;;;;;;2.97;2.17;;;28.00;98.20;;;;;;4160093;28;20060;-63
2023/08/24 08:22:44;;;;;;;4.18;2.28;;;27.90;98.10;;;;;;4160056;28;20041;-64
2023/08/24 08:24:44;;;;;;;3.70;2.30;;;28.00;98.80;;;;;;4161294;28;20042;-64
2023/08/24 08:26:45;;;;;;;5.40;2.83;;;28.00;98.30;;;;;;4160217;28;20488;-64
2023/08/24 08:28:45;;;;;;;3.65;2.17;;;27.90;98.40;;;;;;4161438;28;20374;-64
2023/08/24 08:30:49;;;;;;;2.55;1.75;;;27.90;98.50;;;;;;4160826;28;20037;-64
2023/08/24 08:32:51;;;;;;;3.53;2.35;;;27.90;98.20;;;;;;4162250;28;20034;-63
2023/08/24 08:34:52;;;;;;;4.68;2.70;;;27.90;98.20;;;;;;4162195;28;20033;-64
2023/08/24 08:36:52;;;;;;;4.03;2.30;;;27.90;98.10;;;;;;4161656;28;20481;-64
2023/08/24 08:38:53;;;;;;;4.97;2.10;;;27.90;98.60;;;;;;4162090;28;20049;-63
2023/08/24 08:40:55;;;;;;;3.95;2.45;;;27.80;98.20;;;;;;4161281;28;20033;-64
2023/08/24 08:42:57;;;;;;;;;;;27.90;98.70;;;;;;4162508;28;20040;-64
2023/08/24 08:44:59;;;;;;;5.35;2.78;;;28.00;98.70;;;;;;4162274;28;19952;-64
2023/08/24 08:47:00;;;;;;;3.67;2.33;;;28.00;98.70;;;;;;4157759;28;20053;-64
2023/08/24 08:49:02;;;;;;;4.45;2.50;;;28.10;98.80;;;;;;4159439;28;20033;-63
2023/08/24 08:51:02;;;;;;;4.78;2.83;;;28.10;98.20;;;;;;4161467;28;20125;-64
2023/08/24 08:53:04;;;;;;;5.22;2.72;;;28.00;98.80;;;;;;4152028;28;20490;-64
2023/08/24 08:55:06;;;;;;;5.35;2.58;;;28.00;98.70;;;;;;4161505;28;20056;-64
2023/08/24 08:57:07;;;;;;;4.07;2.30;;;28.00;99.20;;;;;;4161409;28;20029;-64
2023/08/24 08:59:11;;;;;;;5.47;2.42;;;28.10;99.00;;;;;;4161665;28;20055;-63
2023/08/24 09:01:12;;;;;;;3.83;2.85;;;28.10;98.40;;;;;;4163953;28;20061;-64
2023/08/24 09:03:17;;;;;;;8.15;3.28;;;28.10;98.40;;;;;;4164330;28;20555;-63
2023/08/24 09:05:19;;;;;;;5.45;2.85;;;28.10;98.40;;;;;;4164585;28;20033;-64
2023/08/24 09:07:20;;;;;;;5.30;2.92;;;28.20;97.90;;;;;;4163433;28;20033;-64
2023/08/24 09:09:22;;;;;;;4.22;2.75;;;28.20;98.20;;;;;;4165148;28;20032;-62
2023/08/24 09:11:23;;;;;;;4.30;2.78;;;28.00;97.70;;;;;;4164507;28;20049;-64
2023/08/24 09:13:24;;;;;;;5.35;3.20;;;28.10;98.20;;;;;;4163637;28;20033;-64
2023/08/24 09:15:27;;;;;;;5.05;2.67;;;28.20;97.60;;;;;;4164127;28;20635;-63
2023/08/24 09:17:28;;;;;;;5.72;2.85;;;28.10;97.10;;;;;;4164707;28;20044;-63
2023/08/24 09:19:30;;;;;;;4.82;2.72;;;28.20;97.20;;;;;;4164833;28;20041;-63
2023/08/24 09:21:31;;;;;;;4.43;2.45;;;28.30;97.60;;;;;;4164066;28;20037;-64
2023/08/24 09:23:31;;;;;;;4.40;2.30;;;28.30;98.30;;;;;;4164499;28;20041;-64
2023/08/24 09:25:32;;;;;;;3.92;2.15;;;28.30;98.10;;;;;;4163729;28;20059;-64
2023/08/24 09:27:34;;;;;;;4.10;2.22;;;28.40;97.70;;;;;;4163303;28;20087;-64
2023/08/24 09:29:37;;;;;;;4.78;2.83;;;28.40;97.00;;;;;;4164723;28;20474;-63
2023/08/24 09:31:38;;;;;;;9.55;2.80;;;28.30;97.20;;;;;;4162647;28;20048;-64
2023/08/24 09:33:44;;;;;;;4.22;2.30;;;28.30;97.20;;;;;;4164701;28;20040;-64
2023/08/24 09:35:50;;;;;;;5.15;2.60;;;28.30;97.40;;;;;;4163820;28;20041;-63
2023/08/24 09:37:50;;;;;;;4.07;2.05;;;28.40;97.40;;;;;;4164435;28;20120;-64
2023/08/24 09:40:04;;;;;;;5.25;2.40;;;28.40;97.20;;;;;;4165212;28;20048;-71
2023/08/24 09:42:05;;;;;;;4.32;2.25;;;28.30;97.80;;;;;;4164173;28;20116;-76
2023/08/24 09:44:06;;;;;;;3.28;2.22;;;28.30;96.80;;;;;;4164828;28;20083;-76
2023/08/24 09:46:07;;;;;;;6.15;2.50;;;28.30;97.60;;;;;;4165061;28;20425;-77
2023/08/24 09:48:11;;;;;;;3.22;2.10;;;28.30;97.40;;;;;;4164063;28;20045;-77
2023/08/24 09:50:11;;;;;;;4.65;2.55;;;28.40;97.90;;;;;;4164411;28;20057;-76
2023/08/24 09:52:13;;;;;;;6.20;2.75;;;28.20;96.60;;;;;;4164069;28;20040;-76
2023/08/24 09:54:16;;;;;;;7.13;2.90;;;28.30;96.90;;;;;;4164856;28;20421;-77
2023/08/24 09:56:18;;;;;;;6.13;2.85;;;28.30;97.20;;;;;;4164605;28;20064;-78
2023/08/24 09:58:19;;;;;;;5.37;2.93;;;28.40;97.10;;;;;;4159447;28;20038;-76
2023/08/24 10:00:24;;;;;;;7.85;4.00;;;28.50;97.70;;;;;;4162684;28;20271;-77
2023/08/24 10:02:29;;;;;;;9.40;3.92;;;28.50;97.60;;;;;;4162541;28;20413;-76
2023/08/24 10:04:33;;;;;;;11.25;4.90;;;28.50;97.20;;;;;;4164405;28;22276;-74
2023/08/24 10:06:36;;;;;;;8.73;3.67;;;28.40;97.00;;;;;;4164781;28;20053;-77
2023/08/24 10:08:43;;;;;;;11.98;4.50;;;28.40;97.60;;;;;;4164552;28;20025;-77
2023/08/24 10:10:44;;;;;;;10.55;5.18;;;28.50;97.00;;;;;;4158251;28;20039;-79
2023/08/24 10:12:50;;;;;;;10.32;4.32;;;28.50;96.50;;;;;;4161357;28;20034;-78
2023/08/24 10:15:03;;;;;;;10.07;4.55;;;28.50;97.40;;;;;;4163603;28;20435;-78
2023/08/24 10:17:05;;;;;;;7.32;3.70;;;28.50;96.90;;;;;;4164363;28;20026;-78
2023/08/24 10:19:06;;;;;;;6.40;3.25;;;28.50;97.30;;;;;;4164170;28;20040;-79
2023/08/24 10:21:09;;;;;;;7.60;3.55;;;28.60;97.50;;;;;;4164320;28;20099;-79
2023/08/24 10:23:12;;;;;;;9.77;3.95;;;28.70;97.60;;;;;;4164391;28;20447;-76
2023/08/24 10:25:13;;;;;;;10.38;4.40;;;28.70;98.10;;;;;;4162651;28;20030;-75
2023/08/24 10:27:14;;;;;;;7.68;3.88;;;28.70;97.10;;;;;;4164738;28;20140;-77
2023/08/24 10:29:16;;;;;;;7.97;3.78;;;28.70;97.10;;;;;;4164588;28;20366;-77
2023/08/24 10:31:17;;;;;;;5.65;2.97;;;28.70;97.40;;;;;;4164129;28;20389;-76
2023/08/24 10:33:19;;;;;;;4.63;2.63;;;28.70;97.50;;;;;;4178898;28;20033;-77